sensor_id;sensor_type;location;lat;lon;timestamp;pressure;altitude;pressure_sealevel;temperature;humidity
41800;BME280;27468;47.460;19.034;2024-03-29T00:01:55;99480.56;;;9.03;94.65
41800;BME280;27468;47.460;19.034;2024-03-29T00:04:20;99511.09;;;9.09;94.88
41800;BME280;27468;47.460;19.034;2024-03-29T00:06:45;99531.19;;;9.11;95.33
41800;BME280;27468;47.460;19.034;2024-03-29T00:09:11;99519.34;;;8.95;95.21
41800;BME280;27468;47.460;19.034;2024-03-29T00:11:36;99533.28;;;8.99;95.34
41800;BME280;27468;47.460;19.034;2024-03-29T00:14:01;99551.34;;;9.11;95.21
41800;BME280;27468;47.460;19.034;2024-03-29T00:16:27;99539.34;;;9.01;94.69
41800;BME280;27468;47.460;19.034;2024-03-29T00:18:52;99551.56;;;9.03;94.73
41800;BME280;27468;47.460;19.034;2024-03-29T00:21:18;99579.56;;;9.04;95.11
41800;BME280;27468;47.460;19.034;2024-03-29T00:23:43;99583.31;;;8.96;94.25
41800;BME280;27468;47.460;19.034;2024-03-29T00:26:12;99599.22;;;8.89;93.71
41800;BME280;27468;47.460;19.034;2024-03-29T00:28:38;99583.63;;;8.83;94.34
41800;BME280;27468;47.460;19.034;2024-03-29T00:31:04;99592.25;;;8.88;93.90
41800;BME280;27468;47.460;19.034;2024-03-29T00:33:29;99574.19;;;8.75;93.47
41800;BME280;27468;47.460;19.034;2024-03-29T00:35:55;99593.31;;;8.81;92.09
41800;BME280;27468;47.460;19.034;2024-03-29T00:38:20;99616.25;;;8.75;92.57
41800;BME280;27468;47.460;19.034;2024-03-29T00:40:46;99591.13;;;8.65;92.47
41800;BME280;27468;47.460;19.034;2024-03-29T00:43:12;99603.22;;;8.70;93.22
41800;BME280;27468;47.460;19.034;2024-03-29T00:45:37;99614.63;;;8.69;93.69
41800;BME280;27468;47.460;19.034;2024-03-29T00:48:03;99625.88;;;8.74;92.92
41800;BME280;27468;47.460;19.034;2024-03-29T00:50:28;99618.28;;;8.64;92.98
41800;BME280;27468;47.460;19.034;2024-03-29T00:52:53;99633.22;;;8.62;93.34
41800;BME280;27468;47.460;19.034;2024-03-29T00:55:19;99639.41;;;8.59;93.47
41800;BME280;27468;47.460;19.034;2024-03-29T00:57:44;99641.28;;;8.54;93.75
41800;BME280;27468;47.460;19.034;2024-03-29T01:00:10;99644.75;;;8.56;93.51
41800;BME280;27468;47.460;19.034;2024-03-29T01:02:35;99644.59;;;8.62;93.31
41800;BME280;27468;47.460;19.034;2024-03-29T01:05:01;99610.84;;;8.45;94.19
41800;BME280;27468;47.460;19.034;2024-03-29T01:07:26;99647.28;;;8.60;95.47
41800;BME280;27468;47.460;19.034;2024-03-29T01:09:52;99653.47;;;8.58;95.54
41800;BME280;27468;47.460;19.034;2024-03-29T01:12:17;99628.41;;;8.43;95.15
41800;BME280;27468;47.460;19.034;2024-03-29T01:14:44;99633.56;;;8.48;95.77
41800;BME280;27468;47.460;19.034;2024-03-29T01:17:09;99634.72;;;8.35;95.25
41800;BME280;27468;47.460;19.034;2024-03-29T01:19:34;99647.69;;;8.42;95.38
41800;BME280;27468;47.460;19.034;2024-03-29T01:22:00;99656.63;;;8.34;95.66
41800;BME280;27468;47.460;19.034;2024-03-29T01:24:25;99668.03;;;8.31;95.11
41800;BME280;27468;47.460;19.034;2024-03-29T01:26:50;99686.41;;;8.33;95.01
41800;BME280;27468;47.460;19.034;2024-03-29T01:29:16;99678.97;;;8.11;95.40
41800;BME280;27468;47.460;19.034;2024-03-29T01:31:42;99680.75;;;8.09;96.14
41800;BME280;27468;47.460;19.034;2024-03-29T01:34:07;99673.72;;;8.11;96.13
41800;BME280;27468;47.460;19.034;2024-03-29T01:36:32;99658.38;;;7.93;96.69
41800;BME280;27468;47.460;19.034;2024-03-29T01:38:58;99676.63;;;7.99;96.70
41800;BME280;27468;47.460;19.034;2024-03-29T01:41:24;99687.22;;;7.94;96.55
41800;BME280;27468;47.460;19.034;2024-03-29T01:43:50;99689.88;;;7.93;96.04
41800;BME280;27468;47.460;19.034;2024-03-29T01:46:18;99685.72;;;7.81;96.71
41800;BME280;27468;47.460;19.034;2024-03-29T01:48:44;99705.00;;;7.79;97.10
41800;BME280;27468;47.460;19.034;2024-03-29T01:51:11;99712.13;;;7.72;97.19
41800;BME280;27468;47.460;19.034;2024-03-29T01:53:38;99706.22;;;7.61;97.25
41800;BME280;27468;47.460;19.034;2024-03-29T01:56:04;99717.63;;;7.58;97.50
41800;BME280;27468;47.460;19.034;2024-03-29T01:58:30;99719.41;;;7.56;97.58
41800;BME280;27468;47.460;19.034;2024-03-29T02:00:58;99728.31;;;7.49;97.72
41800;BME280;27468;47.460;19.034;2024-03-29T02:03:24;99738.81;;;7.49;97.21
41800;BME280;27468;47.460;19.034;2024-03-29T02:05:50;99735.34;;;7.47;96.99
41800;BME280;27468;47.460;19.034;2024-03-29T02:08:16;99740.56;;;7.49;97.37
41800;BME280;27468;47.460;19.034;2024-03-29T02:10:42;99769.13;;;7.64;97.26
41800;BME280;27468;47.460;19.034;2024-03-29T02:13:08;99768.44;;;7.53;97.73
41800;BME280;27468;47.460;19.034;2024-03-29T02:15:34;99774.69;;;7.47;97.82
41800;BME280;27468;47.460;19.034;2024-03-29T02:17:59;99799.94;;;7.51;98.22
41800;BME280;27468;47.460;19.034;2024-03-29T02:20:24;99806.13;;;7.50;98.45
41800;BME280;27468;47.460;19.034;2024-03-29T02:22:54;99803.56;;;7.46;98.11
41800;BME280;27468;47.460;19.034;2024-03-29T02:25:20;99815.03;;;7.39;98.40
41800;BME280;27468;47.460;19.034;2024-03-29T02:27:46;99832.63;;;7.32;99.30
41800;BME280;27468;47.460;19.034;2024-03-29T02:30:16;99832.66;;;7.29;99.98
41800;BME280;27468;47.460;19.034;2024-03-29T02:32:41;99835.34;;;7.26;100.00
41800;BME280;27468;47.460;19.034;2024-03-29T02:35:07;99839.91;;;7.12;100.00
41800;BME280;27468;47.460;19.034;2024-03-29T02:37:34;99817.22;;;7.11;100.00
41800;BME280;27468;47.460;19.034;2024-03-29T02:39:59;99841.44;;;7.26;99.36
41800;BME280;27468;47.460;19.034;2024-03-29T02:42:25;99854.59;;;7.25;100.00
41800;BME280;27468;47.460;19.034;2024-03-29T02:44:50;99865.88;;;7.28;100.00
41800;BME280;27468;47.460;19.034;2024-03-29T02:47:15;99861.78;;;7.09;100.00
41800;BME280;27468;47.460;19.034;2024-03-29T02:49:41;99866.97;;;7.14;100.00
41800;BME280;27468;47.460;19.034;2024-03-29T02:52:06;99857.56;;;6.99;100.00
41800;BME280;27468;47.460;19.034;2024-03-29T02:54:33;99872.22;;;7.14;100.00
41800;BME280;27468;47.460;19.034;2024-03-29T02:56:58;99862.63;;;7.11;100.00
41800;BME280;27468;47.460;19.034;2024-03-29T02:59:23;99877.50;;;7.11;100.00
41800;BME280;27468;47.460;19.034;2024-03-29T03:01:49;99867.22;;;6.95;100.00
41800;BME280;27468;47.460;19.034;2024-03-29T03:04:14;99880.34;;;6.94;100.00
41800;BME280;27468;47.460;19.034;2024-03-29T03:06:39;99863.09;;;6.79;100.00
41800;BME280;27468;47.460;19.034;2024-03-29T03:09:04;99868.31;;;6.81;100.00
41800;BME280;27468;47.460;19.034;2024-03-29T03:11:48;99879.69;;;6.80;100.00
41800;BME280;27468;47.460;19.034;2024-03-29T03:14:13;99897.00;;;6.91;100.00
41800;BME280;27468;47.460;19.034;2024-03-29T03:16:39;99906.66;;;6.88;100.00
41800;BME280;27468;47.460;19.034;2024-03-29T03:19:04;99915.44;;;6.84;100.00
41800;BME280;27468;47.460;19.034;2024-03-29T03:21:29;99907.63;;;6.81;100.00
41800;BME280;27468;47.460;19.034;2024-03-29T03:23:55;99898.16;;;6.68;100.00
41800;BME280;27468;47.460;19.034;2024-03-29T03:26:20;99887.84;;;6.54;100.00
41800;BME280;27468;47.460;19.034;2024-03-29T03:28:45;99893.88;;;6.60;100.00
41800;BME280;27468;47.460;19.034;2024-03-29T03:31:10;99891.31;;;6.56;100.00
41800;BME280;27468;47.460;19.034;2024-03-29T03:33:36;99895.72;;;6.51;100.00
41800;BME280;27468;47.460;19.034;2024-03-29T03:36:01;99915.00;;;6.45;100.00
41800;BME280;27468;47.460;19.034;2024-03-29T03:38:27;99919.41;;;6.39;100.00
41800;BME280;27468;47.460;19.034;2024-03-29T03:40:52;99916.97;;;6.23;100.00
41800;BME280;27468;47.460;19.034;2024-03-29T03:43:17;99911.06;;;6.03;100.00
41800;BME280;27468;47.460;19.034;2024-03-29T03:45:42;99921.50;;;6.05;100.00
41800;BME280;27468;47.460;19.034;2024-03-29T03:48:10;99934.41;;;6.24;100.00
41800;BME280;27468;47.460;19.034;2024-03-29T03:50:37;99927.41;;;6.29;100.00
41800;BME280;27468;47.460;19.034;2024-03-29T03:53:02;99922.25;;;6.19;100.00
41800;BME280;27468;47.460;19.034;2024-03-29T03:55:28;99920.44;;;6.27;100.00
41800;BME280;27468;47.460;19.034;2024-03-29T03:57:53;99932.53;;;6.37;100.00
41800;BME280;27468;47.460;19.034;2024-03-29T04:00:19;99934.22;;;6.41;100.00
41800;BME280;27468;47.460;19.034;2024-03-29T04:02:49;99928.22;;;6.33;100.00
41800;BME280;27468;47.460;19.034;2024-03-29T04:05:18;99917.09;;;6.11;100.00
41800;BME280;27468;47.460;19.034;2024-03-29T04:07:43;99941.41;;;6.22;100.00
41800;BME280;27468;47.460;19.034;2024-03-29T04:10:09;99955.38;;;6.21;100.00
41800;BME280;27468;47.460;19.034;2024-03-29T04:12:34;99973.78;;;6.12;100.00
41800;BME280;27468;47.460;19.034;2024-03-29T04:15:00;99972.84;;;6.21;100.00
41800;BME280;27468;47.460;19.034;2024-03-29T04:17:25;99971.25;;;6.00;100.00
41800;BME280;27468;47.460;19.034;2024-03-29T04:19:50;99972.25;;;5.81;100.00
41800;BME280;27468;47.460;19.034;2024-03-29T04:22:16;99985.47;;;5.64;100.00
41800;BME280;27468;47.460;19.034;2024-03-29T04:24:41;99986.38;;;5.57;100.00
41800;BME280;27468;47.460;19.034;2024-03-29T04:27:06;99997.53;;;5.79;100.00
41800;BME280;27468;47.460;19.034;2024-03-29T04:29:32;99977.47;;;5.82;100.00
41800;BME280;27468;47.460;19.034;2024-03-29T04:31:57;99993.97;;;5.98;100.00
41800;BME280;27468;47.460;19.034;2024-03-29T04:34:22;99998.28;;;6.02;100.00
41800;BME280;27468;47.460;19.034;2024-03-29T04:36:47;99980.03;;;5.87;100.00
41800;BME280;27468;47.460;19.034;2024-03-29T04:39:13;99989.63;;;5.95;100.00
41800;BME280;27468;47.460;19.034;2024-03-29T04:41:38;99986.16;;;5.90;100.00
41800;BME280;27468;47.460;19.034;2024-03-29T04:44:04;100009.69;;;5.92;100.00
41800;BME280;27468;47.460;19.034;2024-03-29T04:46:30;99993.13;;;5.91;100.00
41800;BME280;27468;47.460;19.034;2024-03-29T04:48:56;100019.19;;;6.07;100.00
41800;BME280;27468;47.460;19.034;2024-03-29T04:51:21;100011.41;;;5.96;100.00
41800;BME280;27468;47.460;19.034;2024-03-29T04:53:47;100008.78;;;5.97;100.00
41800;BME280;27468;47.460;19.034;2024-03-29T04:56:12;100018.38;;;5.97;100.00
41800;BME280;27468;47.460;19.034;2024-03-29T04:58:37;100041.00;;;6.04;100.00
41800;BME280;27468;47.460;19.034;2024-03-29T05:01:03;100026.19;;;6.02;100.00
41800;BME280;27468;47.460;19.034;2024-03-29T05:03:28;100036.66;;;6.05;100.00
41800;BME280;27468;47.460;19.034;2024-03-29T05:05:53;100020.13;;;6.00;100.00
41800;BME280;27468;47.460;19.034;2024-03-29T05:08:20;100041.91;;;6.03;100.00
41800;BME280;27468;47.460;19.034;2024-03-29T05:10:50;100046.22;;;6.07;100.00
41800;BME280;27468;47.460;19.034;2024-03-29T05:13:16;100043.72;;;5.87;100.00
41800;BME280;27468;47.460;19.034;2024-03-29T05:15:42;100037.59;;;5.87;100.00
41800;BME280;27468;47.460;19.034;2024-03-29T05:18:07;100059.38;;;5.98;100.00
41800;BME280;27468;47.460;19.034;2024-03-29T05:20:33;100064.56;;;6.07;100.00
41800;BME280;27468;47.460;19.034;2024-03-29T05:22:58;100056.69;;;6.07;100.00
41800;BME280;27468;47.460;19.034;2024-03-29T05:25:24;100054.06;;;6.12;100.00
41800;BME280;27468;47.460;19.034;2024-03-29T05:27:50;100055.72;;;6.22;100.00
41800;BME280;27468;47.460;19.034;2024-03-29T05:30:15;100055.78;;;6.14;100.00
41800;BME280;27468;47.460;19.034;2024-03-29T05:32:41;100053.13;;;6.19;100.00
41800;BME280;27468;47.460;19.034;2024-03-29T05:35:07;100056.56;;;6.28;100.00
41800;BME280;27468;47.460;19.034;2024-03-29T05:37:34;100064.38;;;6.32;100.00
41800;BME280;27468;47.460;19.034;2024-03-29T05:39:59;100075.72;;;6.32;100.00
41800;BME280;27468;47.460;19.034;2024-03-29T05:42:28;100067.97;;;6.17;100.00
41800;BME280;27468;47.460;19.034;2024-03-29T05:44:54;100091.44;;;6.31;100.00
41800;BME280;27468;47.460;19.034;2024-03-29T05:47:20;100097.41;;;6.45;100.00
41800;BME280;27468;47.460;19.034;2024-03-29T05:49:45;100099.13;;;6.49;100.00
41800;BME280;27468;47.460;19.034;2024-03-29T05:52:11;100103.47;;;6.53;100.00
41800;BME280;27468;47.460;19.034;2024-03-29T05:54:45;100115.56;;;6.68;100.00
41800;BME280;27468;47.460;19.034;2024-03-29T05:57:11;100107.78;;;6.60;100.00
41800;BME280;27468;47.460;19.034;2024-03-29T05:59:36;100086.00;;;6.55;100.00
41800;BME280;27468;47.460;19.034;2024-03-29T06:02:02;100107.69;;;6.72;100.00
41800;BME280;27468;47.460;19.034;2024-03-29T06:04:28;100123.19;;;6.93;100.00
41800;BME280;27468;47.460;19.034;2024-03-29T06:07:01;100128.41;;;6.96;100.00
41800;BME280;27468;47.460;19.034;2024-03-29T06:09:26;100125.00;;;6.91;100.00
41800;BME280;27468;47.460;19.034;2024-03-29T06:11:54;100121.38;;;7.00;100.00
41800;BME280;27468;47.460;19.034;2024-03-29T06:14:20;100125.69;;;7.06;100.00
41800;BME280;27468;47.460;19.034;2024-03-29T06:17:03;100112.53;;;7.12;100.00
41800;BME280;27468;47.460;19.034;2024-03-29T06:19:47;100113.28;;;7.24;100.00
41800;BME280;27468;47.460;19.034;2024-03-29T06:22:13;100122.91;;;7.24;100.00
41800;BME280;27468;47.460;19.034;2024-03-29T06:24:39;100105.47;;;7.18;100.00
41800;BME280;27468;47.460;19.034;2024-03-29T06:27:05;100102.69;;;7.34;100.00
41800;BME280;27468;47.460;19.034;2024-03-29T06:29:30;100102.66;;;7.37;100.00
41800;BME280;27468;47.460;19.034;2024-03-29T06:31:56;100115.66;;;7.47;100.00
41800;BME280;27468;47.460;19.034;2024-03-29T06:34:21;100139.25;;;7.50;100.00
41800;BME280;27468;47.460;19.034;2024-03-29T06:36:46;100138.31;;;7.53;100.00
41800;BME280;27468;47.460;19.034;2024-03-29T06:39:12;100140.81;;;7.63;100.00
41800;BME280;27468;47.460;19.034;2024-03-29T06:41:37;100133.78;;;7.66;100.00
41800;BME280;27468;47.460;19.034;2024-03-29T06:44:03;100130.25;;;7.68;100.00
41800;BME280;27468;47.460;19.034;2024-03-29T06:46:28;100143.16;;;7.86;100.00
41800;BME280;27468;47.460;19.034;2024-03-29T06:48:53;100121.34;;;7.81;100.00
41800;BME280;27468;47.460;19.034;2024-03-29T06:51:19;100135.03;;;8.06;100.00
41800;BME280;27468;47.460;19.034;2024-03-29T06:53:44;100126.25;;;8.07;100.00
41800;BME280;27468;47.460;19.034;2024-03-29T06:56:09;100106.19;;;8.03;100.00
41800;BME280;27468;47.460;19.034;2024-03-29T06:58:34;100108.78;;;8.06;100.00
41800;BME280;27468;47.460;19.034;2024-03-29T07:01:00;100128.69;;;8.19;100.00
41800;BME280;27468;47.460;19.034;2024-03-29T07:03:25;100120.78;;;8.22;100.00
41800;BME280;27468;47.460;19.034;2024-03-29T07:05:51;100117.09;;;8.37;100.00
41800;BME280;27468;47.460;19.034;2024-03-29T07:08:16;100128.31;;;8.47;100.00
41800;BME280;27468;47.460;19.034;2024-03-29T07:10:41;100143.97;;;8.54;100.00
41800;BME280;27468;47.460;19.034;2024-03-29T07:13:07;100141.25;;;8.60;100.00
41800;BME280;27468;47.460;19.034;2024-03-29T07:15:33;100139.38;;;8.67;100.00
41800;BME280;27468;47.460;19.034;2024-03-29T07:18:00;100151.38;;;8.83;100.00
41800;BME280;27468;47.460;19.034;2024-03-29T07:20:26;100145.06;;;8.93;100.00
41800;BME280;27468;47.460;19.034;2024-03-29T07:22:52;100136.25;;;8.98;100.00
41800;BME280;27468;47.460;19.034;2024-03-29T07:25:17;100151.00;;;9.06;100.00
41800;BME280;27468;47.460;19.034;2024-03-29T07:27:43;100146.50;;;9.13;100.00
41800;BME280;27468;47.460;19.034;2024-03-29T07:30:11;100167.19;;;9.31;100.00
41800;BME280;27468;47.460;19.034;2024-03-29T07:32:37;100142.88;;;9.20;100.00
41800;BME280;27468;47.460;19.034;2024-03-29T07:35:03;100167.94;;;9.38;100.00
41800;BME280;27468;47.460;19.034;2024-03-29T07:37:28;100169.53;;;9.46;100.00
41800;BME280;27468;47.460;19.034;2024-03-29T07:39:54;100168.34;;;9.64;100.00
41800;BME280;27468;47.460;19.034;2024-03-29T07:42:19;100157.97;;;9.56;99.78
41800;BME280;27468;47.460;19.034;2024-03-29T07:44:44;100156.69;;;9.76;97.20
41800;BME280;27468;47.460;19.034;2024-03-29T07:47:10;100163.41;;;9.90;96.43
41800;BME280;27468;47.460;19.034;2024-03-29T07:49:38;100158.03;;;9.95;97.00
41800;BME280;27468;47.460;19.034;2024-03-29T07:52:03;100156.81;;;10.11;95.39
41800;BME280;27468;47.460;19.034;2024-03-29T07:54:31;100159.16;;;10.27;93.12
41800;BME280;27468;47.460;19.034;2024-03-29T07:56:57;100155.56;;;10.31;91.32
41800;BME280;27468;47.460;19.034;2024-03-29T07:59:23;100162.19;;;10.47;91.37
41800;BME280;27468;47.460;19.034;2024-03-29T08:01:48;100151.41;;;10.57;89.79
41800;BME280;27468;47.460;19.034;2024-03-29T08:04:14;100161.66;;;10.70;88.20
41800;BME280;27468;47.460;19.034;2024-03-29T08:06:39;100162.50;;;10.72;87.58
41800;BME280;27468;47.460;19.034;2024-03-29T08:09:04;100165.94;;;10.75;88.08
41800;BME280;27468;47.460;19.034;2024-03-29T08:11:30;100170.34;;;10.75;87.22
41800;BME280;27468;47.460;19.034;2024-03-29T08:13:55;100170.88;;;10.89;85.93
41800;BME280;27468;47.460;19.034;2024-03-29T08:16:20;100181.72;;;11.11;84.91
41800;BME280;27468;47.460;19.034;2024-03-29T08:18:46;100171.91;;;11.17;84.97
41800;BME280;27468;47.460;19.034;2024-03-29T08:21:14;100154.38;;;11.15;85.09
41800;BME280;27468;47.460;19.034;2024-03-29T08:23:40;100166.16;;;11.36;83.89
41800;BME280;27468;47.460;19.034;2024-03-29T08:26:06;100173.69;;;11.49;83.60
41800;BME280;27468;47.460;19.034;2024-03-29T08:28:31;100169.00;;;11.59;83.56
41800;BME280;27468;47.460;19.034;2024-03-29T08:31:02;100151.09;;;11.70;81.19
41800;BME280;27468;47.460;19.034;2024-03-29T08:33:28;100164.72;;;11.87;79.64
41800;BME280;27468;47.460;19.034;2024-03-29T08:35:55;100151.41;;;11.92;80.29
41800;BME280;27468;47.460;19.034;2024-03-29T08:38:20;100144.84;;;12.05;77.88
41800;BME280;27468;47.460;19.034;2024-03-29T08:40:47;100162.00;;;12.20;77.37
41800;BME280;27468;47.460;19.034;2024-03-29T08:43:14;100148.50;;;12.29;78.36
41800;BME280;27468;47.460;19.034;2024-03-29T08:45:40;100147.75;;;12.53;76.75
41800;BME280;27468;47.460;19.034;2024-03-29T08:48:07;100136.78;;;12.66;73.50
41800;BME280;27468;47.460;19.034;2024-03-29T08:50:33;100144.41;;;12.75;72.86
41800;BME280;27468;47.460;19.034;2024-03-29T08:52:58;100142.41;;;12.81;71.81
41800;BME280;27468;47.460;19.034;2024-03-29T08:55:23;100139.88;;;13.05;71.75
41800;BME280;27468;47.460;19.034;2024-03-29T08:57:49;100143.06;;;13.16;71.57
41800;BME280;27468;47.460;19.034;2024-03-29T09:00:14;100159.13;;;13.36;70.41
41800;BME280;27468;47.460;19.034;2024-03-29T09:02:40;100161.94;;;13.57;69.17
41800;BME280;27468;47.460;19.034;2024-03-29T09:05:05;100136.16;;;13.62;70.08
41800;BME280;27468;47.460;19.034;2024-03-29T09:07:31;100142.50;;;13.81;69.35
41800;BME280;27468;47.460;19.034;2024-03-29T09:09:56;100137.47;;;14.20;68.09
41800;BME280;27468;47.460;19.034;2024-03-29T09:12:21;100120.72;;;14.43;65.72
41800;BME280;27468;47.460;19.034;2024-03-29T09:14:47;100117.28;;;14.61;64.91
41800;BME280;27468;47.460;19.034;2024-03-29T09:17:12;100115.75;;;14.56;64.36
41800;BME280;27468;47.460;19.034;2024-03-29T09:19:39;100120.75;;;14.63;64.29
41800;BME280;27468;47.460;19.034;2024-03-29T09:22:04;100109.47;;;14.58;60.94
41800;BME280;27468;47.460;19.034;2024-03-29T09:24:30;100112.59;;;14.68;60.19
41800;BME280;27468;47.460;19.034;2024-03-29T09:26:57;100121.47;;;15.09;58.64
41800;BME280;27468;47.460;19.034;2024-03-29T09:29:22;100134.44;;;15.37;57.17
41800;BME280;27468;47.460;19.034;2024-03-29T09:31:47;100143.25;;;15.59;56.37
41800;BME280;27468;47.460;19.034;2024-03-29T09:34:13;100125.06;;;15.69;55.29
41800;BME280;27468;47.460;19.034;2024-03-29T09:36:38;100112.97;;;15.82;54.83
41800;BME280;27468;47.460;19.034;2024-03-29T09:39:04;100096.94;;;15.83;54.67
41800;BME280;27468;47.460;19.034;2024-03-29T09:41:31;100120.53;;;16.10;55.07
41800;BME280;27468;47.460;19.034;2024-03-29T09:44:00;100107.19;;;16.11;54.31
41800;BME280;27468;47.460;19.034;2024-03-29T09:46:28;100098.72;;;16.21;53.37
41800;BME280;27468;47.460;19.034;2024-03-29T09:48:54;100087.56;;;16.14;53.67
41800;BME280;27468;47.460;19.034;2024-03-29T09:51:21;100106.22;;;16.31;53.97
41800;BME280;27468;47.460;19.034;2024-03-29T09:53:47;100086.41;;;16.56;53.59
41800;BME280;27468;47.460;19.034;2024-03-29T09:56:12;100076.47;;;16.59;53.67
41800;BME280;27468;47.460;19.034;2024-03-29T09:58:38;100090.59;;;16.78;53.92
41800;BME280;27468;47.460;19.034;2024-03-29T10:01:05;100089.44;;;16.84;53.11
41800;BME280;27468;47.460;19.034;2024-03-29T10:03:32;100091.34;;;16.99;52.69
41800;BME280;27468;47.460;19.034;2024-03-29T10:06:00;100072.28;;;16.90;53.20
41800;BME280;27468;47.460;19.034;2024-03-29T10:08:30;100090.78;;;17.10;53.00
41800;BME280;27468;47.460;19.034;2024-03-29T10:10:57;100076.91;;;17.21;52.48
41800;BME280;27468;47.460;19.034;2024-03-29T10:13:23;100081.53;;;17.17;53.36
41800;BME280;27468;47.460;19.034;2024-03-29T10:15:55;100085.31;;;17.30;53.48
41800;BME280;27468;47.460;19.034;2024-03-29T10:18:27;100068.41;;;17.47;52.71
41800;BME280;27468;47.460;19.034;2024-03-29T10:21:03;100078.03;;;17.67;52.03
41800;BME280;27468;47.460;19.034;2024-03-29T10:23:29;100061.19;;;17.66;51.93
41800;BME280;27468;47.460;19.034;2024-03-29T10:25:55;100049.69;;;17.64;51.71
41800;BME280;27468;47.460;19.034;2024-03-29T10:28:21;100054.81;;;17.69;50.97
41800;BME280;27468;47.460;19.034;2024-03-29T10:30:46;100056.28;;;17.74;51.16
41800;BME280;27468;47.460;19.034;2024-03-29T10:33:13;100063.34;;;17.75;51.89
41800;BME280;27468;47.460;19.034;2024-03-29T10:35:41;100054.94;;;17.83;51.78
41800;BME280;27468;47.460;19.034;2024-03-29T10:38:09;100036.44;;;17.80;50.83
41800;BME280;27468;47.460;19.034;2024-03-29T10:40:39;100044.59;;;17.93;50.60
41800;BME280;27468;47.460;19.034;2024-03-29T10:43:09;100044.84;;;18.04;52.34
41800;BME280;27468;47.460;19.034;2024-03-29T10:45:38;100055.88;;;18.13;51.08
41800;BME280;27468;47.460;19.034;2024-03-29T10:48:04;100037.81;;;18.19;51.47
41800;BME280;27468;47.460;19.034;2024-03-29T10:50:35;100037.28;;;18.12;51.68
41800;BME280;27468;47.460;19.034;2024-03-29T10:53:02;100026.09;;;18.05;51.27
41800;BME280;27468;47.460;19.034;2024-03-29T10:55:29;100021.19;;;18.13;51.33
41800;BME280;27468;47.460;19.034;2024-03-29T10:57:57;100018.19;;;18.04;52.42
41800;BME280;27468;47.460;19.034;2024-03-29T11:00:25;100008.81;;;18.12;51.78
41800;BME280;27468;47.460;19.034;2024-03-29T11:06:02;100003.91;;;18.05;53.27
41800;BME280;27468;47.460;19.034;2024-03-29T11:08:32;99994.00;;;18.07;52.47
41800;BME280;27468;47.460;19.034;2024-03-29T11:11:00;99980.16;;;18.00;53.90
41800;BME280;27468;47.460;19.034;2024-03-29T11:16:09;99985.66;;;17.97;54.22
41800;BME280;27468;47.460;19.034;2024-03-29T11:18:38;99965.53;;;17.92;55.20
41800;BME280;27468;47.460;19.034;2024-03-29T11:21:05;99961.06;;;17.92;55.54
41800;BME280;27468;47.460;19.034;2024-03-29T11:23:33;99935.63;;;17.87;54.27
41800;BME280;27468;47.460;19.034;2024-03-29T11:25:59;99931.22;;;17.86;54.75
41800;BME280;27468;47.460;19.034;2024-03-29T11:28:34;99956.16;;;18.00;54.75
41800;BME280;27468;47.460;19.034;2024-03-29T11:31:04;99946.16;;;18.04;55.22
41800;BME280;27468;47.460;19.034;2024-03-29T11:36:13;99932.72;;;18.21;55.90
41800;BME280;27468;47.460;19.034;2024-03-29T11:38:41;99944.63;;;18.45;55.33
41800;BME280;27468;47.460;19.034;2024-03-29T11:41:11;99932.41;;;18.41;54.56
41800;BME280;27468;47.460;19.034;2024-03-29T11:43:38;99942.50;;;18.51;54.96
41800;BME280;27468;47.460;19.034;2024-03-29T11:46:06;99925.09;;;18.45;55.30
41800;BME280;27468;47.460;19.034;2024-03-29T11:48:32;99922.34;;;18.61;54.50
41800;BME280;27468;47.460;19.034;2024-03-29T11:50:58;99918.88;;;18.89;54.11
41800;BME280;27468;47.460;19.034;2024-03-29T11:53:24;99920.50;;;19.20;53.88
41800;BME280;27468;47.460;19.034;2024-03-29T11:55:50;99905.31;;;19.34;53.07
41800;BME280;27468;47.460;19.034;2024-03-29T11:58:26;99926.06;;;19.72;51.75
41800;BME280;27468;47.460;19.034;2024-03-29T12:00:52;99913.66;;;19.71;52.24
41800;BME280;27468;47.460;19.034;2024-03-29T12:03:19;99900.72;;;19.51;52.47
41800;BME280;27468;47.460;19.034;2024-03-29T12:05:46;99918.28;;;19.40;52.75
41800;BME280;27468;47.460;19.034;2024-03-29T12:08:12;99904.81;;;19.42;53.25
41800;BME280;27468;47.460;19.034;2024-03-29T12:10:38;99911.16;;;19.55;52.90
41800;BME280;27468;47.460;19.034;2024-03-29T12:13:07;99903.22;;;19.54;53.05
41800;BME280;27468;47.460;19.034;2024-03-29T12:15:33;99901.59;;;19.51;52.10
41800;BME280;27468;47.460;19.034;2024-03-29T12:18:05;99917.72;;;19.64;51.90
41800;BME280;27468;47.460;19.034;2024-03-29T12:20:32;99899.78;;;19.52;52.72
41800;BME280;27468;47.460;19.034;2024-03-29T12:23:01;99897.97;;;19.52;52.69
41800;BME280;27468;47.460;19.034;2024-03-29T12:25:31;99895.75;;;19.59;52.43
41800;BME280;27468;47.460;19.034;2024-03-29T12:27:58;99883.66;;;19.53;52.91
41800;BME280;27468;47.460;19.034;2024-03-29T12:30:24;99861.84;;;19.59;52.50
41800;BME280;27468;47.460;19.034;2024-03-29T12:33:06;99886.47;;;19.91;51.46
41800;BME280;27468;47.460;19.034;2024-03-29T12:35:33;99870.13;;;19.96;51.15
41800;BME280;27468;47.460;19.034;2024-03-29T12:38:00;99882.28;;;20.14;51.33
41800;BME280;27468;47.460;19.034;2024-03-29T12:40:27;99875.09;;;20.27;50.44
41800;BME280;27468;47.460;19.034;2024-03-29T12:42:55;99864.72;;;20.35;50.23
41800;BME280;27468;47.460;19.034;2024-03-29T12:45:22;99885.91;;;20.53;49.86
41800;BME280;27468;47.460;19.034;2024-03-29T12:47:48;99881.47;;;20.39;50.17
41800;BME280;27468;47.460;19.034;2024-03-29T12:50:40;99878.38;;;20.45;50.33
41800;BME280;27468;47.460;19.034;2024-03-29T12:53:07;99878.69;;;20.40;50.59